Time,TemperatureF,DewpointF,PressureIn,WindDirection,WindDirectionDegrees,WindSpeedMPH,WindSpeedGustMPH,Humidity,HourlyPrecipIn,Conditions,Clouds,dailyrainin,SoftwareType,DateUTC
2013-05-06 00:02:00,56.0,44.4,30.09,SE,136,0.0,0.0,65,0.00,,,0.00,Wunderground v.1.15,2013-05-06 05:02:00,
2013-05-06 00:07:00,56.3,44.7,30.09,SE,136,0.0,0.0,65,0.00,,,0.00,Wunderground v.1.15,2013-05-06 05:07:00,
2013-05-06 00:12:00,56.3,44.7,30.09,SE,136,0.0,0.0,65,0.00,,,0.00,Wunderground v.1.15,2013-05-06 05:12:00,
2013-05-06 00:18:00,56.1,44.5,30.09,SE,136,0.0,0.0,65,0.00,,,0.00,Wunderground v.1.15,2013-05-06 05:18:00,
2013-05-06 00:24:00,55.7,44.1,30.09,SE,135,0.0,0.0,65,0.00,,,0.00,Wunderground v.1.15,2013-05-06 05:24:00,
2013-05-06 00:29:00,55.4,44.2,30.09,SE,135,0.0,0.0,66,0.00,,,0.00,Wunderground v.1.15,2013-05-06 05:29:00,
2013-05-06 00:35:00,55.2,44.4,30.09,SE,135,0.0,0.0,67,0.00,,,0.00,Wunderground v.1.15,2013-05-06 05:35:00,
2013-05-06 00:41:00,55.0,44.2,30.09,SE,136,0.0,0.0,67,0.00,,,0.00,Wunderground v.1.15,2013-05-06 05:41:00,
2013-05-06 00:46:00,54.7,44.0,30.08,SE,136,0.0,0.0,67,0.00,,,0.00,Wunderground v.1.15,2013-05-06 05:46:00,
2013-05-06 00:52:00,54.6,44.2,30.08,SE,135,0.0,0.0,68,0.00,,,0.00,Wunderground v.1.15,2013-05-06 05:52:00,
2013-05-06 00:58:00,54.4,44.1,30.08,SSE,167,0.0,0.0,68,0.00,,,0.00,Wunderground v.1.15,2013-05-06 05:58:00,
2013-05-06 01:04:00,54.4,44.4,30.08,SSW,203,1.0,1.0,69,0.00,,,0.00,Wunderground v.1.15,2013-05-06 06:04:00,
2013-05-06 01:09:00,54.5,44.5,30.08,SSW,194,1.0,2.0,69,0.00,,,0.00,Wunderground v.1.15,2013-05-06 06:09:00,
2013-05-06 01:15:00,54.2,44.2,30.08,SW,214,1.0,1.0,69,0.00,,,0.00,Wunderground v.1.15,2013-05-06 06:15:00,
2013-05-06 01:21:00,54.0,44.1,30.08,SW,214,1.0,1.0,69,0.00,,,0.00,Wunderground v.1.15,2013-05-06 06:21:00,
2013-05-06 01:26:00,53.7,43.8,30.08,SW,214,0.0,1.0,69,0.00,,,0.00,Wunderground v.1.15,2013-05-06 06:26:00,
2013-05-06 01:32:00,53.4,43.9,30.08,SW,214,0.0,0.0,70,0.00,,,0.00,Wunderground v.1.15,2013-05-06 06:32:00,
2013-05-06 01:38:00,53.3,43.8,30.08,SW,214,0.0,0.0,70,0.00,,,0.00,Wunderground v.1.15,2013-05-06 06:38:00,
2013-05-06 01:44:00,53.2,44.0,30.08,SW,214,0.0,0.0,71,0.00,,,0.00,Wunderground v.1.15,2013-05-06 06:44:00,
2013-05-06 01:49:00,53.1,43.9,30.08,SW,214,0.0,0.0,71,0.00,,,0.00,Wunderground v.1.15,2013-05-06 06:49:00,
2013-05-06 01:55:00,53.0,43.8,30.08,SW,214,0.0,0.0,71,0.00,,,0.00,Wunderground v.1.15,2013-05-06 06:55:00,
2013-05-06 02:01:00,52.8,44.0,30.08,SW,224,1.0,2.0,72,0.00,,,0.00,Wunderground v.1.15,2013-05-06 07:01:00,
2013-05-06 02:06:00,52.6,43.8,30.08,SW,221,2.0,2.0,72,0.00,,,0.00,Wunderground v.1.15,2013-05-06 07:06:00,
2013-05-06 02:12:00,52.5,43.7,30.08,SW,218,2.0,2.0,72,0.00,,,0.00,Wunderground v.1.15,2013-05-06 07:12:00,
2013-05-06 02:18:00,52.5,43.7,30.07,SW,218,2.0,2.0,72,0.00,,,0.00,Wunderground v.1.15,2013-05-06 07:18:00,
2013-05-06 02:23:00,52.3,43.9,30.07,SW,218,2.0,3.0,73,0.00,,,0.00,Wunderground v.1.15,2013-05-06 07:23:00,
2013-05-06 02:29:00,52.3,43.9,30.07,SW,222,2.0,3.0,73,0.00,,,0.00,Wunderground v.1.15,2013-05-06 07:29:00,
2013-05-06 02:34:00,52.6,43.8,30.07,SW,223,2.0,2.0,72,0.00,,,0.00,Wunderground v.1.15,2013-05-06 07:34:00,
2013-05-06 02:40:00,52.8,44.0,30.07,SW,222,1.0,1.0,72,0.00,,,0.00,Wunderground v.1.15,2013-05-06 07:40:00,
2013-05-06 02:46:00,52.5,43.7,30.06,SW,222,0.0,1.0,72,0.00,,,0.00,Wunderground v.1.15,2013-05-06 07:46:00,
2013-05-06 02:51:00,52.1,43.7,30.07,SW,222,0.0,1.0,73,0.00,,,0.00,Wunderground v.1.15,2013-05-06 07:51:00,
2013-05-06 02:57:00,52.3,43.9,30.06,SW,218,1.0,2.0,73,0.00,,,0.00,Wunderground v.1.15,2013-05-06 07:57:00,
2013-05-06 03:02:00,52.3,43.9,30.06,SW,218,1.0,1.0,73,0.00,,,0.00,Wunderground v.1.15,2013-05-06 08:02:00,
2013-05-06 03:08:00,51.7,43.7,30.07,SW,218,0.0,1.0,74,0.00,,,0.00,Wunderground v.1.15,2013-05-06 08:08:00,
2013-05-06 03:14:00,51.4,43.4,30.07,SW,218,0.0,0.0,74,0.00,,,0.00,Wunderground v.1.15,2013-05-06 08:14:00,
2013-05-06 03:20:00,51.2,43.2,30.07,SW,218,0.0,0.0,74,0.00,,,0.00,Wunderground v.1.15,2013-05-06 08:20:00,
2013-05-06 03:25:00,51.1,43.4,30.07,SW,218,0.0,0.0,75,0.00,,,0.00,Wunderground v.1.15,2013-05-06 08:25:00,
2013-05-06 03:31:00,50.9,43.6,30.07,SW,217,0.0,0.0,76,0.00,,,0.00,Wunderground v.1.15,2013-05-06 08:31:00,
2013-05-06 03:36:00,51.1,43.8,30.07,SW,218,0.0,0.0,76,0.00,,,0.00,Wunderground v.1.15,2013-05-06 08:36:00,
2013-05-06 03:42:00,51.5,43.8,30.07,SW,218,0.0,0.0,75,0.00,,,0.00,Wunderground v.1.15,2013-05-06 08:42:00,
2013-05-06 03:48:00,51.4,43.4,30.07,SW,217,0.0,0.0,74,0.00,,,0.00,Wunderground v.1.15,2013-05-06 08:48:00,
2013-05-06 03:53:00,51.1,43.4,30.07,SW,218,0.0,0.0,75,0.00,,,0.00,Wunderground v.1.15,2013-05-06 08:53:00,
2013-05-06 03:58:00,50.8,43.2,30.07,SW,218,0.0,0.0,75,0.00,,,0.00,Wunderground v.1.15,2013-05-06 08:58:00,
2013-05-06 04:04:00,50.5,43.2,30.08,SW,218,0.0,0.0,76,0.00,,,0.00,Wunderground v.1.15,2013-05-06 09:04:00,
2013-05-06 04:10:00,50.3,43.0,30.08,SW,217,0.0,0.0,76,0.00,,,0.00,Wunderground v.1.15,2013-05-06 09:10:00,
2013-05-06 04:15:00,50.1,43.2,30.08,SW,218,0.0,0.0,77,0.00,,,0.00,Wunderground v.1.15,2013-05-06 09:15:00,
2013-05-06 04:21:00,50.4,43.5,30.08,SW,218,0.0,0.0,77,0.00,,,0.00,Wunderground v.1.15,2013-05-06 09:21:00,
2013-05-06 04:26:00,50.1,42.8,30.08,SW,218,0.0,0.0,76,0.00,,,0.00,Wunderground v.1.15,2013-05-06 09:26:00,
2013-05-06 04:32:00,49.1,42.5,30.08,SW,217,0.0,0.0,78,0.00,,,0.00,Wunderground v.1.15,2013-05-06 09:32:00,
2013-05-06 04:37:00,48.9,42.7,30.08,SW,218,0.0,0.0,79,0.00,,,0.00,Wunderground v.1.15,2013-05-06 09:37:00,
2013-05-06 04:43:00,48.9,42.7,30.08,SW,218,0.0,0.0,79,0.00,,,0.00,Wunderground v.1.15,2013-05-06 09:43:00,
2013-05-06 04:48:00,48.9,42.7,30.08,SW,217,0.0,0.0,79,0.00,,,0.00,Wunderground v.1.15,2013-05-06 09:48:00,
2013-05-06 04:54:00,48.7,42.5,30.08,SW,218,0.0,0.0,79,0.00,,,0.00,Wunderground v.1.15,2013-05-06 09:54:00,
2013-05-06 05:00:00,48.3,42.1,30.09,SW,217,0.0,0.0,79,0.00,,,0.00,Wunderground v.1.15,2013-05-06 10:00:00,
2013-05-06 05:05:00,48.0,42.1,30.09,SW,218,0.0,0.0,80,0.00,,,0.00,Wunderground v.1.15,2013-05-06 10:05:00,
2013-05-06 05:11:00,48.0,42.4,30.08,SW,218,0.0,0.0,81,0.00,,,0.00,Wunderground v.1.15,2013-05-06 10:11:00,
2013-05-06 05:16:00,48.3,42.7,30.08,SW,217,0.0,0.0,81,0.00,,,0.00,Wunderground v.1.15,2013-05-06 10:16:00,
2013-05-06 05:22:00,48.6,43.0,30.08,SW,218,0.0,0.0,81,0.00,,,0.00,Wunderground v.1.15,2013-05-06 10:22:00,
2013-05-06 05:27:00,48.6,42.7,30.08,SW,217,0.0,0.0,80,0.00,,,0.00,Wunderground v.1.15,2013-05-06 10:27:00,
2013-05-06 05:33:00,48.5,42.6,30.08,SW,218,0.0,0.0,80,0.00,,,0.00,Wunderground v.1.15,2013-05-06 10:33:00,
2013-05-06 05:39:00,48.4,42.8,30.09,SW,218,0.0,0.0,81,0.00,,,0.00,Wunderground v.1.15,2013-05-06 10:39:00,
2013-05-06 05:44:00,48.7,43.1,30.09,SW,217,0.0,0.0,81,0.00,,,0.00,Wunderground v.1.15,2013-05-06 10:44:00,
2013-05-06 05:50:00,49.1,43.2,30.09,SW,224,0.0,0.0,80,0.00,,,0.00,Wunderground v.1.15,2013-05-06 10:50:00,
2013-05-06 05:55:00,49.1,43.2,30.09,SW,229,0.0,0.0,80,0.00,,,0.00,Wunderground v.1.15,2013-05-06 10:55:00,
2013-05-06 06:01:00,49.1,43.2,30.09,SW,229,0.0,0.0,80,0.00,,,0.00,Wunderground v.1.15,2013-05-06 11:01:00,
2013-05-06 06:06:00,48.8,42.6,30.09,SW,229,0.0,0.0,79,0.00,,,0.00,Wunderground v.1.15,2013-05-06 11:06:00,
2013-05-06 06:12:00,48.3,42.4,30.09,SW,229,0.0,0.0,80,0.00,,,0.00,Wunderground v.1.15,2013-05-06 11:12:00,
2013-05-06 06:17:00,48.1,42.5,30.09,SW,229,0.0,0.0,81,0.00,,,0.00,Wunderground v.1.15,2013-05-06 11:17:00,
2013-05-06 06:23:00,48.1,42.9,30.09,SW,229,0.0,0.0,82,0.00,,,0.00,Wunderground v.1.15,2013-05-06 11:23:00,
2013-05-06 06:29:00,48.3,42.7,30.08,SW,229,0.0,0.0,81,0.00,,,0.00,Wunderground v.1.15,2013-05-06 11:29:00,
2013-05-06 06:34:00,47.8,42.3,30.09,SW,229,0.0,0.0,81,0.00,,,0.00,Wunderground v.1.15,2013-05-06 11:34:00,
2013-05-06 06:40:00,47.4,42.2,30.09,SW,229,0.0,0.0,82,0.00,,,0.00,Wunderground v.1.15,2013-05-06 11:40:00,
2013-05-06 06:45:00,47.2,42.3,30.09,SW,229,0.0,0.0,83,0.00,,,0.00,Wunderground v.1.15,2013-05-06 11:45:00,
2013-05-06 06:51:00,47.1,42.2,30.09,SW,229,0.0,0.0,83,0.00,,,0.00,Wunderground v.1.15,2013-05-06 11:51:00,
2013-05-06 06:56:00,46.9,42.0,30.09,SW,229,0.0,0.0,83,0.00,,,0.00,Wunderground v.1.15,2013-05-06 11:56:00,
2013-05-06 07:02:00,47.0,42.4,30.10,SW,229,0.0,0.0,84,0.00,,,0.00,Wunderground v.1.15,2013-05-06 12:02:00,
2013-05-06 07:08:00,47.3,42.7,30.10,SW,230,0.0,0.0,84,0.00,,,0.00,Wunderground v.1.15,2013-05-06 12:08:00,
2013-05-06 07:14:00,47.8,43.2,30.10,SW,229,0.0,0.0,84,0.00,,,0.00,Wunderground v.1.15,2013-05-06 12:14:00,
2013-05-06 07:19:00,48.1,43.2,30.10,SW,229,0.0,0.0,83,0.00,,,0.00,Wunderground v.1.15,2013-05-06 12:19:00,
2013-05-06 07:25:00,48.7,43.8,30.10,SW,229,0.0,0.0,83,0.00,,,0.00,Wunderground v.1.15,2013-05-06 12:25:00,
2013-05-06 07:30:00,49.5,44.2,30.10,SW,229,0.0,0.0,82,0.00,,,0.00,Wunderground v.1.15,2013-05-06 12:30:00,
2013-05-06 07:36:00,50.3,45.0,30.10,SW,229,0.0,0.0,82,0.00,,,0.00,Wunderground v.1.15,2013-05-06 12:36:00,
2013-05-06 07:41:00,51.4,45.8,30.10,SW,229,0.0,0.0,81,0.00,,,0.00,Wunderground v.1.15,2013-05-06 12:41:00,
2013-05-06 07:47:00,52.6,45.9,30.11,SW,229,0.0,0.0,78,0.00,,,0.00,Wunderground v.1.15,2013-05-06 12:47:00,
2013-05-06 07:53:00,55.0,46.9,30.11,SSE,149,0.0,0.0,74,0.00,,,0.00,Wunderground v.1.15,2013-05-06 12:53:00,
2013-05-06 07:59:00,56.7,46.3,30.11,SSE,149,0.0,0.0,68,0.00,,,0.00,Wunderground v.1.15,2013-05-06 12:59:00,
2013-05-06 08:05:00,57.4,46.5,30.11,SSE,149,0.0,0.0,67,0.00,,,0.00,Wunderground v.1.15,2013-05-06 13:05:00,
2013-05-06 08:10:00,58.5,46.8,30.11,SSE,149,0.0,0.0,65,0.00,,,0.00,Wunderground v.1.15,2013-05-06 13:10:00,
2013-05-06 08:16:00,59.4,46.4,30.11,ESE,121,0.0,0.0,62,0.00,,,0.00,Wunderground v.1.15,2013-05-06 13:16:00,
2013-05-06 08:22:00,59.2,46.2,30.11,ESE,118,0.0,0.0,62,0.00,,,0.00,Wunderground v.1.15,2013-05-06 13:22:00,
2013-05-06 08:27:00,58.5,45.5,30.11,East,87,1.0,4.0,62,0.00,,,0.00,Wunderground v.1.15,2013-05-06 13:27:00,
2013-05-06 08:33:00,58.2,46.1,30.11,East,91,3.0,5.0,64,0.00,,,0.00,Wunderground v.1.15,2013-05-06 13:33:00,
2013-05-06 08:39:00,58.5,46.4,30.11,ESE,109,3.0,5.0,64,0.00,,,0.00,Wunderground v.1.15,2013-05-06 13:39:00,
2013-05-06 08:45:00,58.6,46.0,30.12,East,94,3.0,4.0,63,0.00,,,0.00,Wunderground v.1.15,2013-05-06 13:45:00,
2013-05-06 08:51:00,59.6,46.6,30.12,SW,232,2.0,3.0,62,0.00,,,0.00,Wunderground v.1.15,2013-05-06 13:51:00,
2013-05-06 08:57:00,60.4,46.9,30.13,South,170,2.0,5.0,61,0.00,,,0.00,Wunderground v.1.15,2013-05-06 13:57:00,
2013-05-06 09:03:00,61.5,47.5,30.13,SSW,194,2.0,2.0,60,0.00,,,0.00,Wunderground v.1.15,2013-05-06 14:03:00,
2013-05-06 09:08:00,62.7,46.8,30.13,South,181,2.0,6.0,56,0.00,,,0.00,Wunderground v.1.15,2013-05-06 14:08:00,
2013-05-06 09:13:00,62.7,45.8,30.13,SW,217,3.0,7.0,54,0.00,,,0.00,Wunderground v.1.15,2013-05-06 14:13:00,
2013-05-06 09:19:00,62.2,46.3,30.13,SW,226,4.0,7.0,56,0.00,,,0.00,Wunderground v.1.15,2013-05-06 14:19:00,
2013-05-06 09:25:00,62.9,46.5,30.13,SW,225,3.0,4.0,55,0.00,,,0.00,Wunderground v.1.15,2013-05-06 14:25:00,
2013-05-06 09:31:00,63.8,46.8,30.13,South,170,3.0,5.0,54,0.00,,,0.00,Wunderground v.1.15,2013-05-06 14:31:00,
2013-05-06 09:36:00,64.0,46.5,30.14,SW,226,4.0,5.0,53,0.00,,,0.00,Wunderground v.1.15,2013-05-06 14:36:00,
2013-05-06 09:42:00,64.7,46.7,30.14,SSW,211,4.0,4.0,52,0.00,,,0.00,Wunderground v.1.15,2013-05-06 14:42:00,
2013-05-06 09:48:00,65.3,47.2,30.13,South,169,4.0,7.0,52,0.00,,,0.00,Wunderground v.1.15,2013-05-06 14:48:00,
2013-05-06 09:54:00,65.2,46.1,30.13,West,276,4.0,7.0,50,0.00,,,0.00,Wunderground v.1.15,2013-05-06 14:54:00,
2013-05-06 09:59:00,65.5,46.9,30.13,SSE,148,3.0,7.0,51,0.00,,,0.00,Wunderground v.1.15,2013-05-06 14:59:00,
2013-05-06 10:04:00,65.6,46.5,30.13,SSW,197,3.0,6.0,50,0.00,,,0.00,Wunderground v.1.15,2013-05-06 15:04:00,
2013-05-06 10:10:00,65.4,47.3,30.14,SW,226,4.0,5.0,52,0.00,,,0.00,Wunderground v.1.15,2013-05-06 15:10:00,
2013-05-06 10:15:00,65.9,47.3,30.14,South,180,4.0,5.0,51,0.00,,,0.00,Wunderground v.1.15,2013-05-06 15:15:00,
2013-05-06 10:21:00,66.7,46.9,30.14,SE,136,5.0,5.0,49,0.00,,,0.00,Wunderground v.1.15,2013-05-06 15:21:00,
2013-05-06 10:27:00,66.7,46.9,30.14,WSW,249,5.0,6.0,49,0.00,,,0.00,Wunderground v.1.15,2013-05-06 15:27:00,
2013-05-06 10:33:00,66.7,46.9,30.14,WSW,253,4.0,8.0,49,0.00,,,0.00,Wunderground v.1.15,2013-05-06 15:33:00,
2013-05-06 10:38:00,66.1,46.9,30.14,West,272,5.0,8.0,50,0.00,,,0.00,Wunderground v.1.15,2013-05-06 15:38:00,
2013-05-06 10:44:00,66.1,46.9,30.14,SSW,208,4.0,5.0,50,0.00,,,0.00,Wunderground v.1.15,2013-05-06 15:44:00,
2013-05-06 10:50:00,66.4,47.2,30.14,SSW,193,3.0,3.0,50,0.00,,,0.00,Wunderground v.1.15,2013-05-06 15:50:00,
2013-05-06 10:56:00,66.5,46.7,30.13,SSW,195,3.0,4.0,49,0.00,,,0.00,Wunderground v.1.15,2013-05-06 15:56:00,
2013-05-06 11:01:00,66.6,46.8,30.13,SSE,149,3.0,5.0,49,0.00,,,0.00,Wunderground v.1.15,2013-05-06 16:01:00,
2013-05-06 11:06:00,66.6,46.8,30.13,SW,224,4.0,6.0,49,0.00,,,0.00,Wunderground v.1.15,2013-05-06 16:06:00,
2013-05-06 11:12:00,66.3,47.1,30.13,SW,224,5.0,8.0,50,0.00,,,0.00,Wunderground v.1.15,2013-05-06 16:12:00,
2013-05-06 11:17:00,66.3,47.1,30.12,SSW,203,4.0,8.0,50,0.00,,,0.00,Wunderground v.1.15,2013-05-06 16:17:00,
2013-05-06 11:23:00,66.4,47.2,30.12,SSE,166,4.0,8.0,50,0.00,,,0.00,Wunderground v.1.15,2013-05-06 16:23:00,
2013-05-06 11:28:00,66.3,46.6,30.12,SW,215,5.0,8.0,49,0.00,,,0.00,Wunderground v.1.15,2013-05-06 16:28:00,
2013-05-06 11:33:00,66.5,46.7,30.12,SSE,159,5.0,8.0,49,0.00,,,0.00,Wunderground v.1.15,2013-05-06 16:33:00,
2013-05-06 11:39:00,66.8,46.5,30.12,SSE,163,5.0,8.0,48,0.00,,,0.00,Wunderground v.1.15,2013-05-06 16:39:00,
2013-05-06 11:44:00,66.9,46.6,30.12,SW,215,5.0,6.0,48,0.00,,,0.00,Wunderground v.1.15,2013-05-06 16:44:00,
2013-05-06 11:50:00,67.3,46.9,30.12,WSW,250,4.0,4.0,48,0.00,,,0.00,Wunderground v.1.15,2013-05-06 16:50:00,
2013-05-06 11:55:00,67.4,46.5,30.12,SSE,167,3.0,6.0,47,0.00,,,0.00,Wunderground v.1.15,2013-05-06 16:55:00,
2013-05-06 12:01:00,67.5,47.1,30.12,South,188,4.0,5.0,48,0.00,,,0.00,Wunderground v.1.15,2013-05-06 17:01:00,
2013-05-06 12:06:00,67.4,46.5,30.11,West,267,4.0,6.0,47,0.00,,,0.00,Wunderground v.1.15,2013-05-06 17:06:00,
2013-05-06 12:12:00,67.4,47.0,30.11,SW,215,4.0,5.0,48,0.00,,,0.00,Wunderground v.1.15,2013-05-06 17:12:00,
2013-05-06 12:17:00,67.7,47.3,30.10,SSE,156,3.0,5.0,48,0.00,,,0.00,Wunderground v.1.15,2013-05-06 17:17:00,
2013-05-06 12:23:00,68.4,47.4,30.10,SSE,159,3.0,4.0,47,0.00,,,0.00,Wunderground v.1.15,2013-05-06 17:23:00,
2013-05-06 12:29:00,69.4,47.7,30.09,ESE,111,3.0,6.0,46,0.00,,,0.00,Wunderground v.1.15,2013-05-06 17:29:00,
2013-05-06 12:34:00,69.5,47.2,30.09,WSW,242,3.0,4.0,45,0.00,,,0.00,Wunderground v.1.15,2013-05-06 17:34:00,
2013-05-06 12:40:00,70.4,46.8,30.08,ESE,120,2.0,2.0,43,0.00,,,0.00,Wunderground v.1.15,2013-05-06 17:40:00,
2013-05-06 12:45:00,70.4,47.4,30.08,South,176,2.0,2.0,44,0.00,,,0.00,Wunderground v.1.15,2013-05-06 17:45:00,
2013-05-06 12:51:00,71.0,46.7,30.08,SSW,211,2.0,4.0,42,0.00,,,0.00,Wunderground v.1.15,2013-05-06 17:51:00,
2013-05-06 12:57:00,70.7,47.1,30.08,SSE,152,2.0,4.0,43,0.00,,,0.00,Wunderground v.1.15,2013-05-06 17:57:00,
2013-05-06 13:02:00,71.5,47.8,30.08,ESE,114,1.0,3.0,43,0.00,,,0.00,Wunderground v.1.15,2013-05-06 18:02:00,
2013-05-06 13:08:00,72.0,48.3,30.07,WSW,246,1.0,3.0,43,0.00,,,0.00,Wunderground v.1.15,2013-05-06 18:08:00,
2013-05-06 13:13:00,72.3,47.9,30.07,South,181,1.0,4.0,42,0.00,,,0.00,Wunderground v.1.15,2013-05-06 18:13:00,
2013-05-06 13:19:00,72.6,47.5,30.07,ESE,105,3.0,7.0,41,0.00,,,0.00,Wunderground v.1.15,2013-05-06 18:19:00,
2013-05-06 13:24:00,71.9,47.6,30.07,WSW,239,3.0,3.0,42,0.00,,,0.00,Wunderground v.1.15,2013-05-06 18:24:00,
2013-05-06 13:30:00,72.2,47.8,30.06,East,98,2.0,5.0,42,0.00,,,0.00,Wunderground v.1.15,2013-05-06 18:30:00,
2013-05-06 13:36:00,72.9,47.8,30.06,West,277,3.0,5.0,41,0.00,,,0.00,Wunderground v.1.15,2013-05-06 18:36:00,
2013-05-06 13:41:00,72.8,46.4,30.07,North,5,2.0,2.0,39,0.00,,,0.00,Wunderground v.1.15,2013-05-06 18:41:00,
2013-05-06 13:47:00,72.2,46.5,30.07,West,278,2.0,4.0,40,0.00,,,0.00,Wunderground v.1.15,2013-05-06 18:47:00,
2013-05-06 13:52:00,71.9,47.6,30.07,WNW,298,3.0,3.0,42,0.00,,,0.00,Wunderground v.1.15,2013-05-06 18:52:00,
2013-05-06 13:58:00,71.9,47.6,30.07,WNW,292,2.0,5.0,42,0.00,,,0.00,Wunderground v.1.15,2013-05-06 18:58:00,
2013-05-06 14:04:00,72.1,47.1,30.07,WNW,291,3.0,3.0,41,0.00,,,0.00,Wunderground v.1.15,2013-05-06 19:04:00,
2013-05-06 14:09:00,72.2,47.2,30.07,West,274,3.0,3.0,41,0.00,,,0.00,Wunderground v.1.15,2013-05-06 19:09:00,
2013-05-06 14:15:00,73.1,47.3,30.07,NW,308,2.0,4.0,40,0.00,,,0.00,Wunderground v.1.15,2013-05-06 19:15:00,
2013-05-06 14:20:00,73.5,47.7,30.07,NNE,22,2.0,6.0,40,0.00,,,0.00,Wunderground v.1.15,2013-05-06 19:20:00,
2013-05-06 14:26:00,73.6,47.8,30.07,SE,146,3.0,6.0,40,0.00,,,0.00,Wunderground v.1.15,2013-05-06 19:26:00,
2013-05-06 14:31:00,74.2,47.6,30.06,WSW,242,2.0,3.0,39,0.00,,,0.00,Wunderground v.1.15,2013-05-06 19:31:00,
2013-05-06 14:37:00,73.6,47.1,30.06,West,267,4.0,10.0,39,0.00,,,0.00,Wunderground v.1.15,2013-05-06 19:37:00,
2013-05-06 14:43:00,73.3,46.8,30.06,South,170,5.0,6.0,39,0.00,,,0.00,Wunderground v.1.15,2013-05-06 19:43:00,
2013-05-06 14:48:00,73.4,46.9,30.06,SSW,203,5.0,6.0,39,0.00,,,0.00,Wunderground v.1.15,2013-05-06 19:48:00,
2013-05-06 14:54:00,73.6,47.1,30.05,SSW,198,3.0,3.0,39,0.00,,,0.00,Wunderground v.1.15,2013-05-06 19:54:00,
2013-05-06 14:59:00,73.6,47.1,30.05,South,181,2.0,4.0,39,0.00,,,0.00,Wunderground v.1.15,2013-05-06 19:59:00,
2013-05-06 15:05:00,73.4,47.6,30.05,East,79,2.0,4.0,40,0.00,,,0.00,Wunderground v.1.15,2013-05-06 20:05:00,
2013-05-06 15:11:00,73.3,47.5,30.04,North,356,2.0,2.0,40,0.00,,,0.00,Wunderground v.1.15,2013-05-06 20:11:00,
2013-05-06 15:16:00,73.5,47.7,30.04,ENE,75,2.0,2.0,40,0.00,,,0.00,Wunderground v.1.15,2013-05-06 20:16:00,
2013-05-06 15:22:00,73.8,48.0,30.04,WSW,252,1.0,2.0,40,0.00,,,0.00,Wunderground v.1.15,2013-05-06 20:22:00,
2013-05-06 15:27:00,73.7,47.9,30.04,ESE,115,2.0,5.0,40,0.00,,,0.00,Wunderground v.1.15,2013-05-06 20:27:00,
2013-05-06 15:33:00,73.3,47.5,30.03,ESE,103,2.0,2.0,40,0.00,,,0.00,Wunderground v.1.15,2013-05-06 20:33:00,
2013-05-06 15:39:00,73.5,47.7,30.03,East,89,2.0,3.0,40,0.00,,,0.00,Wunderground v.1.15,2013-05-06 20:39:00,
2013-05-06 15:44:00,73.4,47.6,30.03,NNE,22,2.0,3.0,40,0.00,,,0.00,Wunderground v.1.15,2013-05-06 20:44:00,
2013-05-06 15:50:00,73.5,47.0,30.03,SE,124,3.0,3.0,39,0.00,,,0.00,Wunderground v.1.15,2013-05-06 20:50:00,
2013-05-06 15:55:00,73.7,47.9,30.03,ENE,73,2.0,3.0,40,0.00,,,0.00,Wunderground v.1.15,2013-05-06 20:55:00,
2013-05-06 16:01:00,73.6,47.1,30.02,ENE,65,2.0,6.0,39,0.00,,,0.00,Wunderground v.1.15,2013-05-06 21:01:00,
2013-05-06 16:06:00,73.5,47.7,30.02,ENE,58,4.0,6.0,40,0.00,,,0.00,Wunderground v.1.15,2013-05-06 21:06:00,
2013-05-06 16:12:00,73.0,47.9,30.02,North,8,5.0,6.0,41,0.00,,,0.00,Wunderground v.1.15,2013-05-06 21:12:00,
2013-05-06 16:18:00,73.0,47.2,30.01,NNE,31,5.0,7.0,40,0.00,,,0.00,Wunderground v.1.15,2013-05-06 21:18:00,
2013-05-06 16:24:00,72.9,47.8,30.01,NNW,347,5.0,6.0,41,0.00,,,0.00,Wunderground v.1.15,2013-05-06 21:24:00,
2013-05-06 16:29:00,72.7,47.0,30.01,NNE,20,4.0,6.0,40,0.00,,,0.00,Wunderground v.1.15,2013-05-06 21:29:00,
2013-05-06 16:35:00,72.7,47.0,30.01,NE,50,3.0,5.0,40,0.00,,,0.00,Wunderground v.1.15,2013-05-06 21:35:00,
2013-05-06 16:41:00,72.8,47.7,30.00,East,91,3.0,3.0,41,0.00,,,0.00,Wunderground v.1.15,2013-05-06 21:41:00,
2013-05-06 16:47:00,73.2,48.1,30.00,East,82,3.0,4.0,41,0.00,,,0.00,Wunderground v.1.15,2013-05-06 21:47:00,
2013-05-06 16:52:00,73.2,48.1,30.00,East,101,4.0,7.0,41,0.00,,,0.00,Wunderground v.1.15,2013-05-06 21:52:00,
2013-05-06 16:58:00,73.1,47.3,30.00,SSE,149,4.0,7.0,40,0.00,,,0.00,Wunderground v.1.15,2013-05-06 21:58:00,
2013-05-06 17:03:00,73.5,47.7,30.00,NE,42,2.0,4.0,40,0.00,,,0.00,Wunderground v.1.15,2013-05-06 22:03:00,
2013-05-06 17:09:00,73.5,47.7,30.00,East,86,3.0,6.0,40,0.00,,,0.00,Wunderground v.1.15,2013-05-06 22:09:00,
2013-05-06 17:14:00,74.0,48.8,30.00,ENE,65,4.0,5.0,41,0.00,,,0.00,Wunderground v.1.15,2013-05-06 22:14:00,
2013-05-06 17:20:00,74.1,47.6,30.00,ENE,63,3.0,3.0,39,0.00,,,0.00,Wunderground v.1.15,2013-05-06 22:20:00,
2013-05-06 17:26:00,73.8,48.0,30.00,NE,36,3.0,5.0,40,0.00,,,0.00,Wunderground v.1.15,2013-05-06 22:26:00,
2013-05-06 17:31:00,73.6,47.8,30.00,ENE,63,3.0,5.0,40,0.00,,,0.00,Wunderground v.1.15,2013-05-06 22:31:00,
2013-05-06 17:37:00,73.3,47.5,30.00,NE,45,4.0,6.0,40,0.00,,,0.00,Wunderground v.1.15,2013-05-06 22:37:00,
2013-05-06 17:43:00,73.4,47.6,30.00,NNE,26,4.0,6.0,40,0.00,,,0.00,Wunderground v.1.15,2013-05-06 22:43:00,
2013-05-06 17:49:00,73.4,47.6,29.99,ENE,68,4.0,6.0,40,0.00,,,0.00,Wunderground v.1.15,2013-05-06 22:49:00,
2013-05-06 17:54:00,73.1,47.3,29.99,East,79,5.0,7.0,40,0.00,,,0.00,Wunderground v.1.15,2013-05-06 22:54:00,
2013-05-06 18:00:00,73.0,47.2,29.99,NE,45,5.0,5.0,40,0.00,,,0.00,Wunderground v.1.15,2013-05-06 23:00:00,
2013-05-06 18:05:00,72.9,47.2,29.99,ENE,70,4.0,5.0,40,0.00,,,0.00,Wunderground v.1.15,2013-05-06 23:05:00,
2013-05-06 18:11:00,73.0,46.6,29.99,NE,49,3.0,4.0,39,0.00,,,0.00,Wunderground v.1.15,2013-05-06 23:11:00,
2013-05-06 18:17:00,72.9,47.2,29.99,NE,44,3.0,6.0,40,0.00,,,0.00,Wunderground v.1.15,2013-05-06 23:17:00,
2013-05-06 18:22:00,73.0,47.2,29.99,East,89,3.0,4.0,40,0.00,,,0.00,Wunderground v.1.15,2013-05-06 23:22:00,
2013-05-06 18:28:00,73.3,48.2,29.99,ENE,68,3.0,6.0,41,0.00,,,0.00,Wunderground v.1.15,2013-05-06 23:28:00,
2013-05-06 18:34:00,73.5,47.7,29.99,ENE,60,4.0,5.0,40,0.00,,,0.00,Wunderground v.1.15,2013-05-06 23:34:00,
2013-05-06 18:40:00,73.1,47.3,29.99,ENE,65,4.0,4.0,40,0.00,,,0.00,Wunderground v.1.15,2013-05-06 23:40:00,
2013-05-06 18:45:00,72.9,47.8,29.99,NE,53,4.0,6.0,41,0.00,,,0.00,Wunderground v.1.15,2013-05-06 23:45:00,
2013-05-06 18:51:00,73.1,48.0,30.00,NE,55,4.0,7.0,41,0.00,,,0.00,Wunderground v.1.15,2013-05-06 23:51:00,
2013-05-06 18:57:00,73.2,48.1,30.00,ENE,63,4.0,7.0,41,0.00,,,0.00,Wunderground v.1.15,2013-05-06 23:57:00,
2013-05-06 19:03:00,73.3,48.2,30.00,NE,46,4.0,7.0,41,0.00,,,0.00,Wunderground v.1.15,2013-05-07 00:03:00,
2013-05-06 19:08:00,72.6,47.5,30.00,NE,46,5.0,9.0,41,0.00,,,0.00,Wunderground v.1.15,2013-05-07 00:08:00,
2013-05-06 19:14:00,72.2,47.8,30.00,NE,56,7.0,7.0,42,0.00,,,0.00,Wunderground v.1.15,2013-05-07 00:14:00,
2013-05-06 19:20:00,71.6,47.9,30.00,NE,54,6.0,6.0,43,0.00,,,0.00,Wunderground v.1.15,2013-05-07 00:20:00,
2013-05-06 19:26:00,71.1,48.1,30.00,NE,34,5.0,6.0,44,0.00,,,0.00,Wunderground v.1.15,2013-05-07 00:26:00,
2013-05-06 19:31:00,70.9,47.9,30.00,NE,39,5.0,8.0,44,0.00,,,0.00,Wunderground v.1.15,2013-05-07 00:31:00,
2013-05-06 19:37:00,70.5,47.5,30.00,NE,39,5.0,8.0,44,0.00,,,0.00,Wunderground v.1.15,2013-05-07 00:37:00,
2013-05-06 19:43:00,70.1,47.8,30.00,NE,36,5.0,5.0,45,0.00,,,0.00,Wunderground v.1.15,2013-05-07 00:43:00,
2013-05-06 19:49:00,69.5,47.8,30.00,NE,43,4.0,5.0,46,0.00,,,0.00,Wunderground v.1.15,2013-05-07 00:49:00,
2013-05-06 19:54:00,69.3,47.6,30.01,NE,54,3.0,4.0,46,0.00,,,0.00,Wunderground v.1.15,2013-05-07 00:54:00,
2013-05-06 20:00:00,68.9,47.8,30.01,NE,51,2.0,2.0,47,0.00,,,0.00,Wunderground v.1.15,2013-05-07 01:00:00,
2013-05-06 20:06:00,68.3,47.8,30.01,NE,53,1.0,2.0,48,0.00,,,0.00,Wunderground v.1.15,2013-05-07 01:06:00,
2013-05-06 20:11:00,67.7,47.8,30.00,NE,53,1.0,1.0,49,0.00,,,0.00,Wunderground v.1.15,2013-05-07 01:11:00,
2013-05-06 20:17:00,67.1,47.8,30.01,ENE,71,1.0,1.0,50,0.00,,,0.00,Wunderground v.1.15,2013-05-07 01:17:00,
2013-05-06 20:22:00,66.6,47.9,30.01,ENE,71,0.0,0.0,51,0.00,,,0.00,Wunderground v.1.15,2013-05-07 01:22:00,
2013-05-06 20:28:00,66.1,48.0,30.01,ENE,71,0.0,0.0,52,0.00,,,0.00,Wunderground v.1.15,2013-05-07 01:28:00,
2013-05-06 20:33:00,65.4,47.8,30.00,East,96,0.0,1.0,53,0.00,,,0.00,Wunderground v.1.15,2013-05-07 01:33:00,
2013-05-06 20:39:00,64.8,47.8,30.01,ESE,117,1.0,2.0,54,0.00,,,0.00,Wunderground v.1.15,2013-05-07 01:39:00,
2013-05-06 20:45:00,64.3,47.3,30.01,ESE,117,1.0,1.0,54,0.00,,,0.00,Wunderground v.1.15,2013-05-07 01:45:00,
2013-05-06 20:51:00,63.8,47.3,30.02,ESE,118,0.0,0.0,55,0.00,,,0.00,Wunderground v.1.15,2013-05-07 01:51:00,
2013-05-06 20:56:00,63.6,47.1,30.02,ESE,118,0.0,0.0,55,0.00,,,0.00,Wunderground v.1.15,2013-05-07 01:56:00,
2013-05-06 21:02:00,63.4,46.9,30.02,ESE,118,0.0,0.0,55,0.00,,,0.00,Wunderground v.1.15,2013-05-07 02:02:00,
2013-05-06 21:07:00,63.3,47.3,30.02,ESE,118,0.0,0.0,56,0.00,,,0.00,Wunderground v.1.15,2013-05-07 02:07:00,
2013-05-06 21:13:00,62.8,46.9,30.02,ESE,117,0.0,0.0,56,0.00,,,0.00,Wunderground v.1.15,2013-05-07 02:13:00,
2013-05-06 21:19:00,62.4,47.0,30.02,ESE,117,0.0,1.0,57,0.00,,,0.00,Wunderground v.1.15,2013-05-07 02:19:00,
2013-05-06 21:24:00,61.8,46.9,30.02,ESE,117,0.0,1.0,58,0.00,,,0.00,Wunderground v.1.15,2013-05-07 02:24:00,
2013-05-06 21:30:00,61.4,46.9,30.03,NNW,343,0.0,0.0,59,0.00,,,0.00,Wunderground v.1.15,2013-05-07 02:30:00,
2013-05-06 21:36:00,61.8,47.3,30.03,North,8,1.0,1.0,59,0.00,,,0.00,Wunderground v.1.15,2013-05-07 02:36:00,
2013-05-06 21:41:00,61.9,47.0,30.03,North,8,1.0,1.0,58,0.00,,,0.00,Wunderground v.1.15,2013-05-07 02:41:00,
2013-05-06 21:47:00,61.8,46.9,30.03,North,8,0.0,1.0,58,0.00,,,0.00,Wunderground v.1.15,2013-05-07 02:47:00,
2013-05-06 21:53:00,61.8,46.9,30.03,North,8,1.0,1.0,58,0.00,,,0.00,Wunderground v.1.15,2013-05-07 02:53:00,
2013-05-06 21:59:00,61.7,47.2,30.03,North,8,0.0,1.0,59,0.00,,,0.00,Wunderground v.1.15,2013-05-07 02:59:00,
2013-05-06 22:05:00,61.1,46.7,30.03,North,8,0.0,0.0,59,0.00,,,0.00,Wunderground v.1.15,2013-05-07 03:05:00,
2013-05-06 22:10:00,60.6,46.6,30.03,North,8,0.0,0.0,60,0.00,,,0.00,Wunderground v.1.15,2013-05-07 03:10:00,
2013-05-06 22:16:00,60.1,46.6,30.03,North,8,0.0,0.0,61,0.00,,,0.00,Wunderground v.1.15,2013-05-07 03:16:00,
2013-05-06 22:21:00,60.0,46.9,30.03,North,8,0.0,0.0,62,0.00,,,0.00,Wunderground v.1.15,2013-05-07 03:21:00,
2013-05-06 22:27:00,60.1,47.0,30.03,North,8,0.0,0.0,62,0.00,,,0.00,Wunderground v.1.15,2013-05-07 03:27:00,
2013-05-06 22:33:00,59.9,46.8,30.03,North,8,0.0,0.0,62,0.00,,,0.00,Wunderground v.1.15,2013-05-07 03:33:00,
2013-05-06 22:39:00,59.6,47.0,30.03,North,8,0.0,0.0,63,0.00,,,0.00,Wunderground v.1.15,2013-05-07 03:39:00,
2013-05-06 22:44:00,59.1,46.5,30.03,SW,217,0.0,2.0,63,0.00,,,0.00,Wunderground v.1.15,2013-05-07 03:44:00,
2013-05-06 22:50:00,58.4,46.7,30.03,SW,217,1.0,1.0,65,0.00,,,0.00,Wunderground v.1.15,2013-05-07 03:50:00,
2013-05-06 22:55:00,58.0,46.3,30.03,SW,217,1.0,1.0,65,0.00,,,0.00,Wunderground v.1.15,2013-05-07 03:55:00,
2013-05-06 23:01:00,58.1,46.4,30.03,SW,217,1.0,1.0,65,0.00,,,0.00,Wunderground v.1.15,2013-05-07 04:01:00,
2013-05-06 23:02:00,58.1,46.4,30.03,SW,217,0.0,1.0,65,0.00,,,0.00,Wunderground v.1.15,2013-05-07 04:02:00,
2013-05-06 23:06:00,58.1,46.4,30.03,SW,217,0.0,1.0,65,0.00,,,0.00,Wunderground v.1.15,2013-05-07 04:06:00,
2013-05-06 23:08:00,58.0,46.3,30.03,SW,217,0.0,1.0,65,0.00,,,0.00,Wunderground v.1.15,2013-05-07 04:08:00,
2013-05-06 23:14:00,58.2,46.5,30.03,SW,226,0.0,1.0,65,0.00,,,0.00,Wunderground v.1.15,2013-05-07 04:14:00,
2013-05-06 23:18:00,58.2,46.5,30.03,SW,226,0.0,1.0,65,0.00,,,0.00,Wunderground v.1.15,2013-05-07 04:18:00,
2013-05-06 23:24:00,58.8,46.6,30.03,WSW,243,0.0,1.0,64,0.00,,,0.00,Wunderground v.1.15,2013-05-07 04:24:00,
2013-05-06 23:29:00,58.3,46.6,30.03,WSW,243,0.0,1.0,65,0.00,,,0.00,Wunderground v.1.15,2013-05-07 04:29:00,
2013-05-06 23:35:00,58.0,46.3,30.03,WSW,243,0.0,0.0,65,0.00,,,0.00,Wunderground v.1.15,2013-05-07 04:35:00,
2013-05-06 23:41:00,57.9,46.6,30.03,WSW,243,0.0,0.0,66,0.00,,,0.00,Wunderground v.1.15,2013-05-07 04:41:00,
2013-05-06 23:47:00,58.2,47.3,30.03,WSW,243,0.0,0.0,67,0.00,,,0.00,Wunderground v.1.15,2013-05-07 04:47:00,
2013-05-06 23:52:00,58.5,47.2,30.03,WSW,244,0.0,0.0,66,0.00,,,0.00,Wunderground v.1.15,2013-05-07 04:52:00,
2013-05-06 23:58:00,58.6,47.7,30.03,WSW,238,1.0,3.0,67,0.00,,,0.00,Wunderground v.1.15,2013-05-07 04:58:00,